createdAt,value
2022-12-15T00:02:17.498Z,13.00
2022-12-15T00:05:02.915Z,13.70
2022-12-15T00:07:48.027Z,12.75
2022-12-15T00:10:33.827Z,11.93
2022-12-15T00:13:19.168Z,13.02
2022-12-15T00:16:05.756Z,12.45
2022-12-15T00:18:50.935Z,12.35
2022-12-15T00:21:36.274Z,12.75
2022-12-15T00:24:21.400Z,13.27
2022-12-15T00:27:06.731Z,13.07
2022-12-15T00:29:52.106Z,13.30
2022-12-15T00:32:37.404Z,13.07
2022-12-15T00:35:22.753Z,12.90
2022-12-15T00:38:08.046Z,13.55
2022-12-15T00:40:34.583Z,14.38
2022-12-15T00:43:01.463Z,14.50
2022-12-15T00:45:48.000Z,12.85
2022-12-15T00:48:14.642Z,12.55
2022-12-15T00:50:53.042Z,13.15
2022-12-15T00:53:42.663Z,14.00
2022-12-15T00:56:28.567Z,14.85
2022-12-15T00:59:14.389Z,13.95
2022-12-15T01:01:59.920Z,14.50
2022-12-15T01:04:46.087Z,14.00
2022-12-15T01:07:31.428Z,13.27
2022-12-15T01:10:16.743Z,13.02
2022-12-15T01:13:02.121Z,14.88
2022-12-15T01:15:47.430Z,13.52
2022-12-15T01:18:32.466Z,13.75
2022-12-15T01:21:05.503Z,14.50
2022-12-15T01:23:33.285Z,14.23
2022-12-15T01:26:00.858Z,14.15
2022-12-15T01:28:27.695Z,12.82
2022-12-15T01:30:54.552Z,13.63
2022-12-15T01:33:22.198Z,14.13
2022-12-15T01:36:01.833Z,12.70
2022-12-15T01:38:29.063Z,14.05
2022-12-15T01:41:02.464Z,13.90
2022-12-15T01:43:35.037Z,14.57
2022-12-15T01:46:02.020Z,16.10
2022-12-15T01:48:35.521Z,13.60
2022-12-15T01:51:04.792Z,15.15
2022-12-15T01:53:40.839Z,14.35
2022-12-15T01:56:09.598Z,13.80
2022-12-15T01:58:37.749Z,13.63
2022-12-15T02:01:04.691Z,14.43
2022-12-15T02:03:32.439Z,14.27
2022-12-15T02:06:01.590Z,14.32
2022-12-15T02:08:29.166Z,12.93
2022-12-15T02:11:14.457Z,14.40
2022-12-15T02:14:02.572Z,12.75
2022-12-15T02:17:05.660Z,13.55
2022-12-15T02:20:05.843Z,13.02
2022-12-15T02:22:38.292Z,13.35
2022-12-15T02:25:28.942Z,13.05
2022-12-15T02:28:04.887Z,14.25
2022-12-15T02:31:08.333Z,13.18
2022-12-15T02:33:40.373Z,13.88
2022-12-15T02:36:24.366Z,14.55
2022-12-15T02:38:50.943Z,13.45
2022-12-15T02:41:42.036Z,14.10
2022-12-15T02:44:30.729Z,12.38
2022-12-15T02:47:05.844Z,13.32
2022-12-15T02:49:39.693Z,14.18
2022-12-15T02:52:34.057Z,15.25
2022-12-15T02:55:20.153Z,13.85
2022-12-15T02:58:11.556Z,13.10
2022-12-15T03:00:44.418Z,14.07
2022-12-15T03:03:13.726Z,13.25
2022-12-15T03:05:40.937Z,14.25
2022-12-15T03:08:09.217Z,14.52
2022-12-15T03:10:35.796Z,13.88
2022-12-15T03:13:02.358Z,13.40
2022-12-15T03:15:33.551Z,14.95
2022-12-15T03:18:01.961Z,14.05
2022-12-15T03:20:28.570Z,14.25
2022-12-15T03:22:55.158Z,13.18
2022-12-15T03:25:21.787Z,12.18
2022-12-15T03:27:48.345Z,14.60
2022-12-15T03:30:15.219Z,14.82
2022-12-15T03:32:41.916Z,13.65
2022-12-15T03:35:08.971Z,13.40
2022-12-15T03:37:35.525Z,13.10
2022-12-15T03:40:02.072Z,14.13
2022-12-15T03:42:47.344Z,13.93
2022-12-15T03:45:21.386Z,13.27
2022-12-15T03:47:48.246Z,13.30
2022-12-15T03:50:16.961Z,14.00
2022-12-15T03:52:44.604Z,13.75
2022-12-15T03:55:12.171Z,12.95
2022-12-15T03:57:38.731Z,13.45
2022-12-15T04:00:07.072Z,12.95
2022-12-15T04:02:33.870Z,11.77
2022-12-15T04:05:00.579Z,13.50
2022-12-15T04:07:27.479Z,15.15
2022-12-15T04:09:54.005Z,12.80
2022-12-15T04:12:20.593Z,15.48
2022-12-15T04:14:47.141Z,15.13
2022-12-15T04:17:16.403Z,14.05
2022-12-15T04:20:01.626Z,14.35
2022-12-15T04:22:28.378Z,16.00
2022-12-15T04:25:13.671Z,13.95
2022-12-15T04:28:01.646Z,13.88
2022-12-15T04:30:49.063Z,13.50
2022-12-15T04:33:35.171Z,14.45
2022-12-15T04:36:20.946Z,13.68
2022-12-15T04:39:06.369Z,14.15
2022-12-15T04:41:51.607Z,13.07
2022-12-15T04:44:37.263Z,12.00
2022-12-15T04:47:22.536Z,14.30
2022-12-15T04:50:07.980Z,13.43
2022-12-15T04:52:53.343Z,14.57
2022-12-15T04:55:38.750Z,14.25
2022-12-15T04:58:26.203Z,13.32
2022-12-15T05:01:11.482Z,13.98
2022-12-15T05:03:59.693Z,13.52
2022-12-15T05:06:44.818Z,13.38
2022-12-15T05:09:30.108Z,13.70
2022-12-15T05:12:15.561Z,13.25
2022-12-15T05:15:00.884Z,12.98
2022-12-15T05:17:46.453Z,13.45
2022-12-15T05:20:31.623Z,12.95
2022-12-15T05:23:17.370Z,13.15
2022-12-15T05:26:03.328Z,12.90
2022-12-15T05:28:48.607Z,13.60
2022-12-15T05:31:34.178Z,13.10
2022-12-15T05:34:05.234Z,13.35
2022-12-15T05:36:33.014Z,14.05
2022-12-15T05:38:59.590Z,13.45
2022-12-15T05:41:26.174Z,12.45
2022-12-15T05:43:52.820Z,13.50
2022-12-15T05:46:19.848Z,14.27
2022-12-15T05:48:46.931Z,17.17
2022-12-15T05:51:14.362Z,15.07
2022-12-15T05:53:41.974Z,14.27
2022-12-15T05:56:13.745Z,13.85
2022-12-15T05:58:45.138Z,14.75
2022-12-15T06:01:15.865Z,13.55
2022-12-15T06:03:43.246Z,12.85
2022-12-15T06:06:12.106Z,15.30
2022-12-15T06:08:40.630Z,12.80
2022-12-15T06:11:07.651Z,13.00
2022-12-15T06:13:35.014Z,14.70
2022-12-15T06:16:04.334Z,13.05
2022-12-15T06:18:34.310Z,13.98
2022-12-15T06:21:09.175Z,12.93
2022-12-15T06:23:36.502Z,13.50
2022-12-15T06:26:21.137Z,13.80
2022-12-15T06:28:49.000Z,12.15
2022-12-15T06:31:17.772Z,11.88
2022-12-15T06:33:44.381Z,13.30
2022-12-15T06:36:13.671Z,12.80
2022-12-15T06:38:43.491Z,14.05
2022-12-15T06:41:12.830Z,13.70
2022-12-15T06:43:39.637Z,12.70
2022-12-15T06:46:07.008Z,12.80
2022-12-15T06:48:33.566Z,14.23
2022-12-15T06:51:13.347Z,13.23
2022-12-15T06:53:51.180Z,13.60
2022-12-15T06:56:32.551Z,13.25
2022-12-15T06:59:00.352Z,12.93
2022-12-15T07:01:27.687Z,13.05
2022-12-15T07:03:54.955Z,14.13
2022-12-15T07:06:21.906Z,13.43
2022-12-15T07:08:53.897Z,15.05
2022-12-15T07:11:22.146Z,12.98
2022-12-15T07:13:52.901Z,12.93
2022-12-15T07:16:21.482Z,14.20
2022-12-15T07:18:48.166Z,13.90
2022-12-15T07:21:14.764Z,18.42
2022-12-15T07:23:58.053Z,12.20
2022-12-15T07:26:25.897Z,12.93
2022-12-15T07:28:53.755Z,13.18
2022-12-15T07:31:21.063Z,13.57
2022-12-15T07:33:48.478Z,12.50
2022-12-15T07:36:15.702Z,12.48
2022-12-15T07:38:42.599Z,13.35
2022-12-15T07:41:10.304Z,12.50
2022-12-15T07:43:38.193Z,13.07
2022-12-15T07:46:05.721Z,13.32
2022-12-15T07:48:33.003Z,13.15
2022-12-15T07:51:09.575Z,13.45
2022-12-15T07:53:39.921Z,13.55
2022-12-15T07:56:09.440Z,12.73
2022-12-15T07:58:37.811Z,13.13
2022-12-15T08:01:10.646Z,13.02
2022-12-15T08:03:38.728Z,14.43
2022-12-15T08:06:14.404Z,13.80
2022-12-15T08:08:41.516Z,14.35
2022-12-15T08:11:10.860Z,12.65
2022-12-15T08:16:25.832Z,12.63
2022-12-15T08:18:52.493Z,13.35
2022-12-15T08:21:19.316Z,13.13
2022-12-15T08:23:46.212Z,13.35
2022-12-15T08:26:16.052Z,12.98
2022-12-15T08:28:43.726Z,12.80
2022-12-15T08:31:16.770Z,13.63
2022-12-15T08:33:44.912Z,13.40
2022-12-15T08:36:13.816Z,13.07
2022-12-15T08:38:41.898Z,13.52
2022-12-15T08:41:12.652Z,13.70
2022-12-15T08:43:45.749Z,14.18
2022-12-15T08:46:16.255Z,12.77
2022-12-15T08:48:43.166Z,13.32
2022-12-15T08:51:10.303Z,14.40
2022-12-15T08:53:37.054Z,14.27
2022-12-15T08:56:12.513Z,13.43
2022-12-15T08:58:39.601Z,12.85
2022-12-15T09:01:09.080Z,13.55
2022-12-15T09:03:36.699Z,13.23
2022-12-15T09:06:05.399Z,13.90
2022-12-15T09:08:33.304Z,13.57
2022-12-15T09:11:00.983Z,13.05
2022-12-15T09:13:27.823Z,13.88
2022-12-15T09:16:14.504Z,13.40
2022-12-15T09:18:46.718Z,14.02
2022-12-15T09:21:14.479Z,13.63
2022-12-15T09:23:42.062Z,13.60
2022-12-15T09:26:14.583Z,14.40
2022-12-15T09:28:44.982Z,11.32
2022-12-15T09:31:21.765Z,13.25
2022-12-15T09:33:49.933Z,13.70
2022-12-15T09:36:16.567Z,13.18
2022-12-15T09:38:43.726Z,13.20
2022-12-15T09:41:13.303Z,12.52
2022-12-15T09:43:51.210Z,13.02
2022-12-15T09:46:34.324Z,12.23
2022-12-15T09:49:11.414Z,13.35
2022-12-15T09:51:47.925Z,12.10
2022-12-15T09:54:14.600Z,12.68
2022-12-15T09:56:49.862Z,13.57
2022-12-15T09:59:49.236Z,13.93
2022-12-15T10:02:39.726Z,13.73
2022-12-15T10:06:07.449Z,12.15
2022-12-15T10:08:28.372Z,12.38
2022-12-15T10:11:01.695Z,13.95
2022-12-15T10:13:52.290Z,12.38
2022-12-15T10:16:24.921Z,12.93
2022-12-15T10:19:14.776Z,13.10
2022-12-15T10:21:42.532Z,13.48
2022-12-15T10:24:37.560Z,11.65
2022-12-15T10:27:32.647Z,11.73
2022-12-15T10:30:09.531Z,12.63
2022-12-15T10:33:11.387Z,11.50
2022-12-15T10:35:39.853Z,11.45
2022-12-15T10:38:17.163Z,11.90
2022-12-15T10:40:52.005Z,11.68
2022-12-15T10:43:28.818Z,11.43
2022-12-15T10:46:09.365Z,12.75
2022-12-15T10:48:37.269Z,11.77
2022-12-15T10:51:37.074Z,12.20
2022-12-15T10:54:12.961Z,12.93
2022-12-15T10:57:23.399Z,11.88
2022-12-15T10:59:50.509Z,12.07
2022-12-15T11:02:34.542Z,11.25
2022-12-15T11:05:15.497Z,11.82
2022-12-15T11:07:53.435Z,12.30
2022-12-15T11:10:19.946Z,10.85
2022-12-15T11:13:13.271Z,12.38
2022-12-15T11:15:56.441Z,11.48
2022-12-15T11:19:04.664Z,11.85
2022-12-15T11:21:38.715Z,10.68
2022-12-15T11:24:21.531Z,13.00
2022-12-15T11:27:12.940Z,11.50
2022-12-15T11:30:03.805Z,11.00
2022-12-15T11:32:35.295Z,10.90
2022-12-15T11:35:02.417Z,11.23
2022-12-15T11:37:40.180Z,11.63
2022-12-15T11:40:40.785Z,11.27
2022-12-15T11:43:45.986Z,11.05
2022-12-15T11:46:24.187Z,10.40
2022-12-15T11:49:12.399Z,10.65
2022-12-15T11:52:14.141Z,10.20
2022-12-15T11:54:53.374Z,10.23
2022-12-15T11:57:43.519Z,11.10
2022-12-15T12:00:20.023Z,10.48
2022-12-15T12:03:00.230Z,11.40
2022-12-15T12:05:41.645Z,11.55
2022-12-15T12:08:18.874Z,12.00
2022-12-15T12:11:02.356Z,10.52
2022-12-15T12:13:53.915Z,10.55
2022-12-15T12:16:39.934Z,10.93
2022-12-15T12:19:19.493Z,12.63
2022-12-15T12:24:43.767Z,10.65
2022-12-15T12:27:34.720Z,10.73
2022-12-15T12:30:24.022Z,10.57
2022-12-15T12:33:19.750Z,11.43
2022-12-15T12:35:50.619Z,11.57
2022-12-15T12:38:24.784Z,10.80
2022-12-15T12:41:20.546Z,11.15
2022-12-15T12:43:58.875Z,10.77
2022-12-15T12:46:39.322Z,11.13
2022-12-15T12:52:14.972Z,10.98
2022-12-15T12:54:50.208Z,9.43
2022-12-15T12:57:31.782Z,9.48
2022-12-15T13:00:02.664Z,10.43
2022-12-15T13:02:35.262Z,11.35
2022-12-15T13:05:22.183Z,11.43
2022-12-15T13:08:06.700Z,10.40
2022-12-15T13:10:36.299Z,11.38
2022-12-15T13:13:27.690Z,10.50
2022-12-15T13:16:24.265Z,11.15
2022-12-15T13:19:05.129Z,11.75
2022-12-15T13:21:44.302Z,9.70
2022-12-15T13:24:35.818Z,10.60
2022-12-15T13:27:16.566Z,10.02
2022-12-15T13:30:09.059Z,9.93
2022-12-15T13:32:41.969Z,10.55
2022-12-15T13:35:14.494Z,9.98
2022-12-15T13:37:49.064Z,10.23
2022-12-15T13:40:35.716Z,10.18
2022-12-15T13:43:05.404Z,10.27
2022-12-15T13:45:37.932Z,10.27
2022-12-15T13:48:32.966Z,9.55
2022-12-15T13:51:24.048Z,9.70
2022-12-15T13:54:09.905Z,9.95
2022-12-15T13:56:45.225Z,8.93
2022-12-15T13:59:37.401Z,8.80
2022-12-15T14:02:22.215Z,9.65
2022-12-15T14:05:17.660Z,9.05
2022-12-15T14:07:52.662Z,10.05
2022-12-15T14:10:28.655Z,10.02
2022-12-15T14:13:01.515Z,9.40
2022-12-15T14:15:32.034Z,9.70
2022-12-15T14:18:01.422Z,11.02
2022-12-15T14:20:40.651Z,9.82
2022-12-15T14:23:22.893Z,9.65
2022-12-15T14:25:56.760Z,9.30
2022-12-15T14:28:30.263Z,8.93
2022-12-15T14:31:00.238Z,10.10
2022-12-15T14:33:29.762Z,10.13
2022-12-15T14:36:00.019Z,8.23
2022-12-15T14:38:33.076Z,9.45
2022-12-15T14:41:03.289Z,10.32
2022-12-15T14:43:37.568Z,9.07
2022-12-15T14:46:11.257Z,9.88
2022-12-15T14:48:42.961Z,9.77
2022-12-15T14:51:12.834Z,9.77
2022-12-15T14:53:42.126Z,9.07
2022-12-15T14:56:29.742Z,9.10
2022-12-15T14:58:59.822Z,9.23
2022-12-15T15:01:29.966Z,9.30
2022-12-15T15:03:05.150Z,10.63
2022-12-15T15:03:11.973Z,11.02
2022-12-15T15:03:58.870Z,8.40
2022-12-15T15:06:40.220Z,8.77
2022-12-15T15:09:32.409Z,10.50
2022-12-15T15:12:05.503Z,9.73
2022-12-15T15:14:44.593Z,9.32
2022-12-15T15:17:14.604Z,9.40
2022-12-15T15:19:55.266Z,9.95
2022-12-15T15:22:37.750Z,9.50
2022-12-15T15:25:39.909Z,9.05
2022-12-15T15:28:18.167Z,9.20
2022-12-15T15:30:48.355Z,8.38
2022-12-15T15:33:16.879Z,10.40
2022-12-15T15:35:44.866Z,9.32
2022-12-15T15:38:29.324Z,9.32
2022-12-15T15:41:14.730Z,10.18
2022-12-15T15:43:41.776Z,8.75
2022-12-15T15:46:35.954Z,9.77
2022-12-15T15:49:06.064Z,9.15
2022-12-15T15:51:33.635Z,8.63
2022-12-15T15:54:04.466Z,9.55
2022-12-15T15:56:31.509Z,8.90
2022-12-15T15:59:02.758Z,10.32
2022-12-15T16:01:29.413Z,9.77
2022-12-15T16:03:56.170Z,8.73
2022-12-15T16:06:24.215Z,9.65
2022-12-15T16:08:52.547Z,10.20
2022-12-15T16:11:20.290Z,9.80
2022-12-15T16:13:46.937Z,9.27
2022-12-15T16:16:19.801Z,8.52
2022-12-15T16:18:46.486Z,9.27
2022-12-15T16:21:14.534Z,8.77
2022-12-15T16:23:44.134Z,9.60
2022-12-15T16:26:16.284Z,9.35
2022-12-15T16:28:43.170Z,8.82
2022-12-15T16:31:29.108Z,8.77
2022-12-15T16:33:55.942Z,10.05
2022-12-15T16:36:22.626Z,9.20
2022-12-15T16:38:50.116Z,9.13
2022-12-15T16:41:18.717Z,9.07
2022-12-15T16:43:48.117Z,9.18
2022-12-15T16:46:15.731Z,9.73
2022-12-15T16:48:43.379Z,8.77
2022-12-15T16:51:31.757Z,8.88
2022-12-15T16:53:58.338Z,8.75
2022-12-15T16:56:24.895Z,8.35
2022-12-15T16:58:57.570Z,8.95
2022-12-15T17:01:29.580Z,9.23
2022-12-15T17:03:57.142Z,8.70
2022-12-15T17:06:23.795Z,10.05
2022-12-15T17:08:54.403Z,8.57
2022-12-15T17:11:27.276Z,9.57
2022-12-15T17:13:57.266Z,8.70
2022-12-15T17:16:25.735Z,9.15
2022-12-15T17:18:53.036Z,8.80
2022-12-15T17:21:21.106Z,9.60
2022-12-15T17:23:52.361Z,9.20
2022-12-15T17:26:29.885Z,9.68
2022-12-15T17:29:01.151Z,10.10
2022-12-15T17:31:34.829Z,9.25
2022-12-15T17:34:30.090Z,8.82
2022-12-15T17:37:02.347Z,9.15
2022-12-15T17:39:30.313Z,9.00
2022-12-15T17:42:00.568Z,9.68
2022-12-15T17:44:36.862Z,8.88
2022-12-15T17:47:07.381Z,9.55
2022-12-15T17:49:37.269Z,9.40
2022-12-15T17:52:26.394Z,8.48
2022-12-15T17:54:53.966Z,9.38
2022-12-15T17:57:20.896Z,8.95
2022-12-15T17:59:48.181Z,7.95
2022-12-15T18:02:15.241Z,8.35
2022-12-15T18:04:42.221Z,9.43
2022-12-15T18:07:21.147Z,9.77
2022-12-15T18:09:49.692Z,8.43
2022-12-15T18:12:20.368Z,9.38
2022-12-15T18:14:47.818Z,9.38
2022-12-15T18:17:14.847Z,8.77
2022-12-15T18:19:41.425Z,9.38
2022-12-15T18:22:21.000Z,8.88
2022-12-15T18:24:48.952Z,8.95
2022-12-15T18:27:27.234Z,10.95
2022-12-15T18:29:54.370Z,8.82
2022-12-15T18:32:24.504Z,9.70
2022-12-15T18:34:51.401Z,9.07
2022-12-15T18:37:20.688Z,9.15
2022-12-15T18:39:47.873Z,9.88
2022-12-15T18:42:16.793Z,9.50
2022-12-15T18:44:48.862Z,8.20
2022-12-15T18:47:17.515Z,8.73
2022-12-15T18:49:44.210Z,9.90
2022-12-15T18:52:19.983Z,9.75
2022-12-15T18:54:52.499Z,10.00
2022-12-15T18:57:37.801Z,9.10
2022-12-15T19:00:18.058Z,9.35
2022-12-15T19:02:44.815Z,9.73
2022-12-15T19:05:27.507Z,9.60
2022-12-15T19:08:00.305Z,9.20
2022-12-15T19:10:33.595Z,9.32
2022-12-15T19:13:00.432Z,9.38
2022-12-15T19:15:27.253Z,8.85
2022-12-15T19:18:12.678Z,8.90
2022-12-15T19:20:58.414Z,9.75
2022-12-15T19:23:25.162Z,9.15
2022-12-15T19:25:53.126Z,9.15
2022-12-15T19:28:23.343Z,9.80
2022-12-15T19:30:51.992Z,8.80
2022-12-15T19:33:19.280Z,9.07
2022-12-15T19:35:51.134Z,8.27
2022-12-15T19:38:31.907Z,9.57
2022-12-15T19:40:59.984Z,8.68
2022-12-15T19:43:26.902Z,9.38
2022-12-15T19:45:53.789Z,11.20
2022-12-15T19:48:23.806Z,9.43
2022-12-15T19:50:52.065Z,9.05
2022-12-15T19:53:28.277Z,8.57
2022-12-15T19:55:59.737Z,8.93
2022-12-15T19:58:44.767Z,8.93
2022-12-15T20:01:17.775Z,9.02
2022-12-15T20:03:49.397Z,9.05
2022-12-15T20:06:20.492Z,9.65
2022-12-15T20:08:50.331Z,8.90
2022-12-15T20:11:24.659Z,7.97
2022-12-15T20:13:52.222Z,8.88
2022-12-15T20:16:19.502Z,8.18
2022-12-15T20:18:54.727Z,8.32
2022-12-15T20:21:23.914Z,9.02
2022-12-15T20:23:54.705Z,8.82
2022-12-15T20:26:22.388Z,8.93
2022-12-15T20:28:49.279Z,8.45
2022-12-15T20:31:19.233Z,8.60
2022-12-15T20:33:46.707Z,9.00
2022-12-15T20:36:19.351Z,8.98
2022-12-15T20:38:46.567Z,9.00
2022-12-15T20:41:31.086Z,8.10
2022-12-15T20:43:59.046Z,9.27
2022-12-15T20:46:32.643Z,8.77
2022-12-15T20:48:59.655Z,8.82
2022-12-15T20:51:32.145Z,8.93
2022-12-15T20:54:02.257Z,8.25
2022-12-15T20:56:29.406Z,10.07
2022-12-15T20:58:57.230Z,8.48
2022-12-15T21:01:26.978Z,9.25
2022-12-15T21:03:56.830Z,9.38
2022-12-15T21:06:25.192Z,7.88
2022-12-15T21:08:52.507Z,8.20
2022-12-15T21:11:25.314Z,9.07
2022-12-15T21:13:53.850Z,8.82
2022-12-15T21:16:26.842Z,8.73
2022-12-15T21:21:44.289Z,8.13
2022-12-15T21:24:23.516Z,8.57
2022-12-15T21:26:50.944Z,8.48
2022-12-15T21:29:23.450Z,8.02
2022-12-15T21:31:50.881Z,8.30
2022-12-15T21:34:17.451Z,9.50
2022-12-15T21:36:47.466Z,9.23
2022-12-15T21:39:23.546Z,8.13
2022-12-15T21:41:50.414Z,8.55
2022-12-15T21:44:18.382Z,8.63
2022-12-15T21:46:45.474Z,7.25
2022-12-15T21:49:20.618Z,7.70
2022-12-15T21:51:52.483Z,8.82
2022-12-15T21:54:30.451Z,8.55
2022-12-15T21:56:58.967Z,6.97
2022-12-15T21:59:29.863Z,8.77
2022-12-15T22:01:56.868Z,8.10
2022-12-15T22:04:31.935Z,7.43
2022-12-15T22:06:58.686Z,7.43
2022-12-15T22:09:25.425Z,7.70
2022-12-15T22:11:54.233Z,7.45
2022-12-15T22:14:28.583Z,7.63
2022-12-15T22:16:55.813Z,7.60
2022-12-15T22:19:23.359Z,8.90
2022-12-15T22:21:50.440Z,8.93
2022-12-15T22:24:17.063Z,6.72
2022-12-15T22:26:44.315Z,7.93
2022-12-15T22:29:21.556Z,7.78
2022-12-15T22:31:50.540Z,7.40
2022-12-15T22:34:21.944Z,7.43
2022-12-15T22:36:49.568Z,8.27
2022-12-15T22:39:18.849Z,7.15
2022-12-15T22:41:48.908Z,6.82
2022-12-15T22:44:19.828Z,7.70
2022-12-15T22:46:48.420Z,6.80
2022-12-15T22:49:20.463Z,7.60
2022-12-15T22:51:47.570Z,8.27
2022-12-15T22:54:26.985Z,7.78
2022-12-15T22:57:04.284Z,7.07
2022-12-15T22:59:41.321Z,7.75
2022-12-15T23:02:09.081Z,7.03
2022-12-15T23:04:36.649Z,6.45
2022-12-15T23:07:07.504Z,7.25
2022-12-15T23:09:34.136Z,7.78
2022-12-15T23:12:00.861Z,7.15
2022-12-15T23:15:03.119Z,6.97
2022-12-15T23:17:29.674Z,6.60
2022-12-15T23:19:56.204Z,6.68
2022-12-15T23:22:22.817Z,6.82
2022-12-15T23:24:49.534Z,7.53
2022-12-15T23:27:16.099Z,7.95
2022-12-15T23:29:42.652Z,6.70
2022-12-15T23:32:09.222Z,7.20
2022-12-15T23:34:35.770Z,7.60
2022-12-15T23:37:02.713Z,7.38
2022-12-15T23:39:29.475Z,7.72
2022-12-15T23:41:56.147Z,7.20
2022-12-15T23:44:22.986Z,7.35
2022-12-15T23:46:49.659Z,7.78
2022-12-15T23:49:16.413Z,6.95
2022-12-15T23:51:43.136Z,6.80
2022-12-15T23:54:10.115Z,7.25
2022-12-15T23:56:39.164Z,7.28
2022-12-15T23:59:05.785Z,6.97
